createdAt,value
2019-05-17T00:01:16.661Z,172.60
2019-05-17T00:04:07.218Z,172.32
2019-05-17T00:06:57.147Z,166.97
2019-05-17T00:09:47.701Z,162.27
2019-05-17T00:12:36.761Z,161.32
2019-05-17T00:15:27.323Z,163.87
2019-05-17T00:18:17.113Z,155.93
2019-05-17T00:21:07.771Z,156.97
2019-05-17T00:23:57.229Z,150.53
2019-05-17T00:26:46.755Z,149.72
2019-05-17T00:29:37.322Z,148.35
2019-05-17T00:32:27.427Z,145.68
2019-05-17T00:35:17.882Z,144.20
2019-05-17T00:38:06.585Z,139.90
2019-05-17T00:40:56.511Z,139.92
2019-05-17T00:43:46.211Z,137.30
2019-05-17T00:46:37.109Z,137.50
2019-05-17T00:49:26.405Z,135.85
2019-05-17T00:52:16.819Z,133.45
2019-05-17T00:55:07.088Z,133.40
2019-05-17T00:57:56.536Z,132.10
2019-05-17T01:00:47.699Z,131.90
2019-05-17T01:03:36.322Z,128.53
2019-05-17T01:06:27.354Z,125.65
2019-05-17T01:09:17.013Z,123.55
2019-05-17T01:12:07.069Z,125.85
2019-05-17T01:14:55.478Z,124.75
2019-05-17T01:17:43.730Z,123.42
2019-05-17T01:20:31.959Z,121.00
2019-05-17T01:23:20.579Z,116.33
2019-05-17T01:26:09.093Z,116.12
2019-05-17T01:28:57.443Z,115.77
2019-05-17T01:31:46.674Z,111.75
2019-05-17T01:34:37.426Z,112.60
2019-05-17T01:37:27.549Z,110.97
2019-05-17T01:40:17.467Z,109.52
2019-05-17T01:43:07.557Z,107.67
2019-05-17T01:45:57.287Z,113.47
2019-05-17T01:48:47.138Z,107.30
2019-05-17T01:51:37.084Z,106.45
2019-05-17T01:54:26.911Z,105.00
2019-05-17T01:57:16.886Z,103.22
2019-05-17T02:00:08.182Z,101.53
2019-05-17T02:02:57.817Z,102.60
2019-05-17T02:05:47.335Z,101.25
2019-05-17T02:08:37.215Z,101.05
2019-05-17T02:11:26.919Z,98.65
2019-05-17T02:14:16.517Z,96.40
2019-05-17T02:17:06.829Z,97.33
2019-05-17T02:19:57.182Z,95.50
2019-05-17T02:22:47.243Z,93.25
2019-05-17T02:25:36.948Z,92.75
2019-05-17T02:28:25.436Z,93.75
2019-05-17T02:31:14.038Z,96.12
2019-05-17T02:34:03.201Z,91.67
2019-05-17T02:36:53.364Z,91.87
2019-05-17T02:39:56.601Z,91.50
2019-05-17T02:42:33.414Z,86.82
2019-05-17T02:45:23.453Z,86.08
2019-05-17T02:48:13.353Z,86.30
2019-05-17T02:51:03.578Z,85.38
2019-05-17T02:53:52.779Z,84.13
2019-05-17T02:56:43.659Z,82.92
2019-05-17T02:59:33.039Z,82.85
2019-05-17T03:02:27.556Z,81.90
2019-05-17T03:05:13.893Z,79.97
2019-05-17T03:08:04.152Z,80.75
2019-05-17T03:10:53.477Z,82.20
2019-05-17T03:13:43.426Z,78.90
2019-05-17T03:16:33.889Z,79.37
2019-05-17T03:19:23.562Z,78.28
2019-05-17T03:22:13.291Z,77.92
2019-05-17T03:25:03.159Z,75.80
2019-05-17T03:27:53.581Z,76.55
2019-05-17T03:30:46.782Z,78.45
2019-05-17T03:33:35.835Z,75.25
2019-05-17T03:36:26.260Z,74.67
2019-05-17T03:39:13.139Z,73.80
2019-05-17T03:42:02.745Z,72.70
2019-05-17T03:44:53.068Z,71.72
2019-05-17T03:47:44.461Z,75.15
2019-05-17T03:50:33.523Z,71.77
2019-05-17T03:53:22.904Z,74.10
2019-05-17T03:56:13.311Z,71.37
2019-05-17T03:59:03.675Z,69.75
2019-05-17T04:01:52.688Z,68.35
2019-05-17T04:04:42.885Z,67.35
2019-05-17T04:07:32.869Z,71.87
2019-05-17T04:10:22.873Z,69.25
2019-05-17T04:13:23.755Z,65.87
2019-05-17T04:16:14.109Z,65.65
2019-05-17T04:19:03.520Z,65.57
2019-05-17T04:21:53.646Z,65.45
2019-05-17T04:24:43.774Z,66.22
2019-05-17T04:27:34.084Z,63.28
2019-05-17T04:30:23.295Z,63.55
2019-05-17T04:33:12.850Z,64.95
2019-05-17T04:36:02.704Z,62.70
2019-05-17T04:38:52.626Z,63.58
2019-05-17T04:41:49.240Z,62.75
2019-05-17T04:44:32.283Z,63.63
2019-05-17T04:47:22.937Z,65.05
2019-05-17T04:50:13.395Z,62.40
2019-05-17T04:53:02.649Z,64.72
2019-05-17T04:55:53.927Z,60.23
2019-05-17T04:58:42.991Z,61.88
2019-05-17T05:01:32.915Z,60.92
2019-05-17T05:04:22.577Z,59.55
2019-05-17T05:07:13.589Z,58.17
2019-05-17T05:10:03.061Z,58.68
2019-05-17T05:12:52.656Z,60.65
2019-05-17T05:15:43.951Z,58.40
2019-05-17T05:18:32.824Z,59.18
2019-05-17T05:21:23.019Z,58.05
2019-05-17T05:24:11.979Z,58.75
2019-05-17T05:27:02.536Z,57.25
2019-05-17T05:29:52.174Z,57.27
2019-05-17T05:32:42.678Z,58.15
2019-05-17T05:35:31.793Z,56.60
2019-05-17T05:38:21.669Z,58.10
2019-05-17T05:41:12.076Z,55.90
2019-05-17T05:44:01.824Z,57.15
2019-05-17T05:46:51.495Z,53.38
2019-05-17T05:49:42.596Z,55.85
2019-05-17T05:52:32.416Z,54.38
2019-05-17T05:55:23.417Z,54.90
2019-05-17T05:58:12.053Z,57.78
2019-05-17T06:01:02.386Z,78.65
2019-05-17T06:03:52.044Z,66.20
2019-05-17T06:06:41.933Z,96.78
2019-05-17T06:09:31.786Z,103.67
2019-05-17T06:12:23.882Z,108.80
2019-05-17T06:15:22.615Z,112.50
2019-05-17T06:18:12.200Z,113.50
2019-05-17T06:21:02.972Z,106.65
2019-05-17T06:23:51.667Z,103.70
2019-05-17T06:26:42.166Z,104.17
2019-05-17T06:29:32.601Z,100.42
2019-05-17T06:32:22.829Z,95.95
2019-05-17T06:35:12.629Z,100.95
2019-05-17T06:38:02.053Z,94.55
2019-05-17T06:41:12.507Z,90.50
2019-05-17T06:44:02.722Z,90.95
2019-05-17T06:46:51.921Z,88.85
2019-05-17T06:49:42.219Z,85.05
2019-05-17T06:52:29.586Z,84.30
2019-05-17T06:55:18.098Z,81.85
2019-05-17T06:58:06.471Z,80.05
2019-05-17T07:00:54.868Z,80.00
2019-05-17T07:03:43.450Z,78.45
2019-05-17T07:06:33.335Z,77.75
2019-05-17T07:09:21.530Z,72.80
2019-05-17T07:12:10.523Z,73.42
2019-05-17T07:15:01.126Z,72.03
2019-05-17T07:17:50.409Z,70.95
2019-05-17T07:20:39.546Z,68.57
2019-05-17T07:23:30.263Z,67.22
2019-05-17T07:26:19.725Z,68.30
2019-05-17T07:29:10.063Z,68.07
2019-05-17T07:32:00.341Z,66.05
2019-05-17T07:35:10.407Z,63.65
2019-05-17T07:37:59.530Z,63.35
2019-05-17T07:40:50.151Z,63.30
2019-05-17T07:43:40.298Z,61.42
2019-05-17T07:46:29.438Z,59.90
2019-05-17T07:49:20.046Z,60.88
2019-05-17T07:52:10.350Z,59.90
2019-05-17T07:55:02.388Z,58.92
2019-05-17T07:57:49.562Z,57.58
2019-05-17T08:00:40.028Z,57.33
2019-05-17T08:03:29.872Z,56.30
2019-05-17T08:06:19.864Z,55.78
2019-05-17T08:09:13.381Z,54.77
2019-05-17T08:11:59.570Z,54.33
2019-05-17T08:14:50.122Z,54.18
2019-05-17T08:17:39.664Z,53.30
2019-05-17T08:20:29.840Z,52.75
2019-05-17T08:23:20.153Z,54.27
2019-05-17T08:26:10.493Z,51.80
2019-05-17T08:29:00.759Z,51.08
2019-05-17T08:31:49.773Z,50.83
2019-05-17T08:34:40.084Z,50.05
2019-05-17T08:37:30.176Z,50.23
2019-05-17T08:40:20.124Z,49.95
2019-05-17T08:43:09.997Z,48.45
2019-05-17T08:46:01.654Z,48.15
2019-05-17T08:48:49.512Z,47.67
2019-05-17T08:51:39.687Z,47.60
2019-05-17T08:54:30.302Z,46.63
2019-05-17T08:57:20.430Z,46.80
2019-05-17T09:00:10.633Z,46.98
2019-05-17T09:03:00.025Z,46.35
2019-05-17T09:05:52.749Z,46.05
2019-05-17T09:08:40.546Z,47.83
2019-05-17T09:11:30.251Z,46.30
2019-05-17T09:14:18.724Z,45.83
2019-05-17T09:17:06.909Z,45.70
2019-05-17T09:19:55.375Z,45.67
2019-05-17T09:22:44.136Z,45.15
2019-05-17T09:25:32.559Z,43.73
2019-05-17T09:28:20.909Z,45.48
2019-05-17T09:31:10.359Z,44.30
2019-05-17T09:34:00.268Z,44.35
2019-05-17T09:36:50.142Z,43.65
2019-05-17T09:39:40.180Z,43.05
2019-05-17T09:42:29.992Z,42.75
2019-05-17T09:45:20.217Z,43.13
2019-05-17T09:48:10.237Z,42.83
2019-05-17T09:50:59.900Z,42.55
2019-05-17T09:53:49.589Z,44.33
2019-05-17T09:56:39.483Z,42.13
2019-05-17T09:59:29.821Z,42.30
2019-05-17T10:02:20.175Z,49.23
2019-05-17T10:05:10.324Z,41.83
2019-05-17T10:07:59.883Z,43.02
2019-05-17T10:11:00.971Z,41.42
2019-05-17T10:13:37.354Z,42.27
2019-05-17T10:16:25.569Z,41.42
2019-05-17T10:19:13.735Z,40.63
2019-05-17T10:22:02.085Z,41.65
2019-05-17T10:24:50.698Z,41.23
2019-05-17T10:27:40.675Z,40.50
2019-05-17T10:30:29.979Z,40.30
2019-05-17T10:33:20.038Z,40.55
2019-05-17T10:36:09.947Z,40.70
2019-05-17T10:38:59.226Z,42.78
2019-05-17T10:41:50.042Z,41.20
2019-05-17T10:44:46.559Z,39.98
2019-05-17T10:47:30.164Z,41.63
2019-05-17T10:50:20.561Z,39.78
2019-05-17T10:53:09.957Z,39.92
2019-05-17T10:56:00.720Z,39.73
2019-05-17T10:58:49.326Z,40.08
2019-05-17T11:01:37.911Z,39.13
2019-05-17T11:04:26.616Z,39.98
2019-05-17T11:07:14.828Z,39.70
2019-05-17T11:10:03.634Z,39.90
2019-05-17T11:12:52.149Z,39.33
2019-05-17T11:15:40.724Z,38.67
2019-05-17T11:18:29.200Z,39.30
2019-05-17T11:21:17.719Z,39.18
2019-05-17T11:24:05.996Z,40.95
2019-05-17T11:26:54.328Z,39.03
2019-05-17T11:29:42.855Z,39.13
2019-05-17T11:32:31.088Z,40.08
2019-05-17T11:35:19.658Z,39.83
2019-05-17T11:38:08.019Z,39.10
2019-05-17T11:40:56.205Z,39.30
2019-05-17T11:43:44.761Z,40.28
2019-05-17T11:46:36.255Z,39.42
2019-05-17T11:49:23.784Z,38.80
2019-05-17T11:52:12.089Z,39.30
2019-05-17T11:55:00.243Z,38.48
2019-05-17T11:57:48.645Z,39.23
2019-05-17T12:00:36.895Z,39.95
2019-05-17T12:03:25.107Z,39.53
2019-05-17T12:06:13.596Z,38.92
2019-05-17T12:09:02.304Z,39.88
2019-05-17T12:11:51.344Z,39.18
2019-05-17T12:14:39.743Z,39.20
2019-05-17T12:17:28.011Z,39.15
2019-05-17T12:20:16.607Z,38.95
2019-05-17T12:23:04.979Z,38.42
2019-05-17T12:25:53.174Z,38.10
2019-05-17T12:28:41.530Z,37.88
2019-05-17T12:31:29.679Z,38.30
2019-05-17T12:34:18.115Z,37.88
2019-05-17T12:37:06.692Z,38.35
2019-05-17T12:39:54.659Z,37.93
2019-05-17T12:42:43.265Z,38.23
2019-05-17T12:45:31.570Z,39.88
2019-05-17T12:48:20.182Z,39.03
2019-05-17T12:51:09.103Z,37.28
2019-05-17T12:53:58.164Z,37.83
2019-05-17T12:56:47.522Z,39.30
2019-05-17T12:59:35.673Z,38.70
2019-05-17T13:02:23.715Z,39.18
2019-05-17T13:05:12.216Z,39.80
2019-05-17T13:08:00.752Z,38.75
2019-05-17T13:10:48.914Z,38.58
2019-05-17T13:13:37.685Z,37.83
2019-05-17T13:16:25.963Z,37.88
2019-05-17T13:19:14.251Z,37.13
2019-05-17T13:22:02.462Z,38.10
2019-05-17T13:24:50.694Z,37.17
2019-05-17T13:27:39.625Z,37.58
2019-05-17T13:30:28.020Z,37.17
2019-05-17T13:33:16.335Z,36.98
2019-05-17T13:36:04.880Z,37.08
2019-05-17T13:38:53.698Z,37.90
2019-05-17T13:41:41.979Z,37.75
2019-05-17T13:44:30.211Z,37.50
2019-05-17T13:47:18.340Z,39.92
2019-05-17T13:50:06.939Z,40.73
2019-05-17T13:52:55.598Z,39.90
2019-05-17T13:55:44.033Z,39.55
2019-05-17T13:58:32.506Z,39.73
2019-05-17T14:01:21.008Z,40.50
2019-05-17T14:04:09.387Z,39.83
2019-05-17T14:06:57.716Z,41.92
2019-05-17T14:09:46.212Z,40.67
2019-05-17T14:12:35.807Z,41.77
2019-05-17T14:15:24.131Z,40.05
2019-05-17T14:18:12.749Z,39.90
2019-05-17T14:21:01.171Z,40.10
2019-05-17T14:23:49.392Z,39.60
2019-05-17T14:26:38.014Z,39.65
2019-05-17T14:29:26.411Z,39.45
2019-05-17T14:32:15.157Z,39.70
2019-05-17T14:35:03.603Z,40.10
2019-05-17T14:38:11.574Z,39.80
2019-05-17T14:41:06.505Z,40.40
2019-05-17T14:43:50.340Z,40.60
2019-05-17T14:46:38.640Z,40.33
2019-05-17T14:49:27.067Z,42.62
2019-05-17T14:52:16.815Z,40.03
2019-05-17T14:55:05.255Z,39.65
2019-05-17T14:57:53.712Z,38.78
2019-05-17T15:00:41.952Z,39.30
2019-05-17T15:03:30.403Z,40.03
2019-05-17T15:06:18.583Z,39.83
2019-05-17T15:09:11.206Z,39.83
2019-05-17T15:11:57.444Z,40.30
2019-05-17T15:14:45.897Z,41.08
2019-05-17T15:17:35.300Z,39.78
2019-05-17T15:20:24.182Z,39.38
2019-05-17T15:23:13.717Z,40.45
2019-05-17T15:26:02.156Z,40.28
2019-05-17T15:28:50.828Z,40.73
2019-05-17T15:31:39.203Z,40.52
2019-05-17T15:34:27.818Z,39.60
2019-05-17T15:37:16.315Z,42.30
2019-05-17T15:40:05.627Z,40.55
2019-05-17T15:42:54.128Z,40.20
2019-05-17T15:45:43.461Z,40.60
2019-05-17T15:48:31.800Z,39.45
2019-05-17T15:51:20.068Z,38.83
2019-05-17T15:54:08.365Z,39.55
2019-05-17T15:56:56.827Z,40.35
2019-05-17T15:59:45.575Z,38.63
2019-05-17T16:02:34.103Z,38.98
2019-05-17T16:05:22.596Z,39.05
2019-05-17T16:08:11.109Z,39.27
2019-05-17T16:10:59.633Z,38.95
2019-05-17T16:13:47.947Z,38.35
2019-05-17T16:16:36.157Z,40.00
2019-05-17T16:19:24.312Z,39.05
2019-05-17T16:22:12.471Z,39.00
2019-05-17T16:25:00.778Z,39.08
2019-05-17T16:27:48.902Z,39.23
2019-05-17T16:30:37.103Z,38.28
2019-05-17T16:33:25.274Z,39.00
2019-05-17T16:36:13.595Z,39.13
2019-05-17T16:39:02.248Z,39.50
2019-05-17T16:41:52.076Z,40.30
2019-05-17T16:44:40.211Z,38.63
2019-05-17T16:47:28.727Z,39.48
2019-05-17T16:50:17.347Z,40.25
2019-05-17T16:53:06.475Z,39.03
2019-05-17T16:55:55.146Z,39.05
2019-05-17T16:58:43.308Z,40.55
2019-05-17T17:01:31.574Z,39.73
2019-05-17T17:04:20.051Z,38.40
2019-05-17T17:07:08.491Z,39.45
2019-05-17T17:09:56.955Z,38.98
2019-05-17T17:12:45.336Z,39.27
2019-05-17T17:15:33.580Z,40.75
2019-05-17T17:18:22.278Z,39.85
2019-05-17T17:21:10.430Z,39.48
2019-05-17T17:24:18.282Z,38.58
2019-05-17T17:27:06.500Z,39.63
2019-05-17T17:29:54.556Z,41.40
2019-05-17T17:32:42.877Z,39.80
2019-05-17T17:35:31.179Z,40.25
2019-05-17T17:38:19.590Z,41.02
2019-05-17T17:41:08.160Z,39.18
2019-05-17T17:43:58.904Z,38.58
2019-05-17T17:46:46.379Z,39.58
2019-05-17T17:49:34.769Z,39.38
2019-05-17T17:52:23.292Z,40.50
2019-05-17T17:55:11.750Z,39.92
2019-05-17T17:58:00.100Z,39.60
2019-05-17T18:00:49.193Z,39.45
2019-05-17T18:03:37.885Z,38.92
2019-05-17T18:06:26.031Z,38.78
2019-05-17T18:09:26.759Z,38.45
2019-05-17T18:12:14.924Z,39.80
2019-05-17T18:15:06.293Z,39.78
2019-05-17T18:17:53.168Z,39.63
2019-05-17T18:20:41.439Z,38.78
2019-05-17T18:23:29.831Z,39.40
2019-05-17T18:26:18.224Z,39.58
2019-05-17T18:29:08.062Z,39.63
2019-05-17T18:31:57.058Z,40.00
2019-05-17T18:34:45.526Z,39.03
2019-05-17T18:37:35.182Z,40.00
2019-05-17T18:40:23.828Z,40.12
2019-05-17T18:43:11.778Z,40.23
2019-05-17T18:46:01.262Z,39.00
2019-05-17T18:48:49.817Z,39.65
2019-05-17T18:51:38.231Z,40.08
2019-05-17T18:54:26.801Z,39.63
2019-05-17T18:57:15.118Z,39.15
2019-05-17T19:00:03.363Z,40.17
2019-05-17T19:02:52.534Z,39.18
2019-05-17T19:05:41.014Z,40.08
2019-05-17T19:08:29.219Z,39.95
2019-05-17T19:11:17.730Z,40.33
2019-05-17T19:14:06.227Z,41.45
2019-05-17T19:16:54.715Z,39.42
2019-05-17T19:19:43.114Z,39.73
2019-05-17T19:22:31.534Z,41.60
2019-05-17T19:25:19.875Z,39.45
2019-05-17T19:28:08.099Z,38.40
2019-05-17T19:30:57.858Z,38.98
2019-05-17T19:33:46.455Z,39.23
2019-05-17T19:36:34.922Z,39.83
2019-05-17T19:39:23.098Z,41.23
2019-05-17T19:42:11.753Z,39.35
2019-05-17T19:45:01.213Z,39.13
2019-05-17T19:47:50.857Z,40.55
2019-05-17T19:50:39.079Z,40.30
2019-05-17T19:53:28.138Z,40.20
2019-05-17T19:56:16.663Z,40.23
2019-05-17T19:59:05.013Z,39.15
2019-05-17T20:01:53.339Z,39.60
2019-05-17T20:04:41.872Z,40.10
2019-05-17T20:07:38.068Z,39.42
2019-05-17T20:10:20.319Z,40.28
2019-05-17T20:13:08.821Z,38.55
2019-05-17T20:15:57.411Z,40.25
2019-05-17T20:18:46.868Z,41.92
2019-05-17T20:21:35.198Z,40.05
2019-05-17T20:24:23.167Z,42.38
2019-05-17T20:27:11.639Z,41.08
2019-05-17T20:30:00.126Z,38.15
2019-05-17T20:32:48.660Z,36.75
2019-05-17T20:35:37.534Z,38.98
2019-05-17T20:38:25.820Z,37.55
2019-05-17T20:41:14.539Z,37.67
2019-05-17T20:44:02.735Z,38.35
2019-05-17T20:46:51.544Z,37.83
2019-05-17T20:49:39.859Z,37.63
2019-05-17T20:52:28.388Z,37.90
2019-05-17T20:55:17.092Z,38.40
2019-05-17T20:58:05.251Z,38.48
2019-05-17T21:00:54.297Z,38.30
2019-05-17T21:03:42.526Z,37.67
2019-05-17T21:06:30.880Z,37.53
2019-05-17T21:09:19.410Z,38.45
2019-05-17T21:12:07.875Z,37.85
2019-05-17T21:14:56.617Z,38.00
2019-05-17T21:17:45.514Z,37.78
2019-05-17T21:20:35.500Z,37.20
2019-05-17T21:23:24.940Z,37.60
2019-05-17T21:26:13.541Z,38.38
2019-05-17T21:29:02.028Z,38.70
2019-05-17T21:31:50.258Z,39.08
2019-05-17T21:34:38.883Z,37.80
2019-05-17T21:37:27.175Z,38.33
2019-05-17T21:40:15.746Z,37.20
2019-05-17T21:43:04.209Z,37.23
2019-05-17T21:46:03.296Z,37.55
2019-05-17T21:48:45.284Z,38.17
2019-05-17T21:51:33.935Z,38.10
2019-05-17T21:54:22.287Z,37.83
2019-05-17T21:57:10.757Z,37.70
2019-05-17T21:59:59.197Z,37.67
2019-05-17T22:02:48.661Z,38.92
2019-05-17T22:05:36.744Z,37.75
2019-05-17T22:08:24.902Z,37.55
2019-05-17T22:11:13.150Z,37.38
2019-05-17T22:14:02.797Z,38.38
2019-05-17T22:16:51.364Z,37.83
2019-05-17T22:19:39.990Z,39.08
2019-05-17T22:22:28.214Z,37.85
2019-05-17T22:25:16.686Z,37.70
2019-05-17T22:28:05.499Z,38.15
2019-05-17T22:30:54.715Z,37.40
2019-05-17T22:33:43.435Z,38.53
2019-05-17T22:36:31.870Z,38.38
2019-05-17T22:39:20.054Z,38.25
2019-05-17T22:42:08.299Z,39.53
2019-05-17T22:44:56.630Z,38.48
2019-05-17T22:47:45.007Z,38.13
2019-05-17T22:50:33.291Z,37.90
2019-05-17T22:53:21.835Z,37.67
2019-05-17T22:56:10.119Z,37.55
2019-05-17T22:58:58.463Z,37.78
2019-05-17T23:04:36.799Z,39.95
2019-05-17T23:07:25.012Z,36.77
2019-05-17T23:10:13.333Z,37.03
2019-05-17T23:13:01.637Z,37.58
2019-05-17T23:19:08.603Z,36.93
2019-05-17T23:21:57.439Z,36.93
2019-05-17T23:24:46.055Z,37.38
2019-05-17T23:27:34.554Z,38.15
2019-05-17T23:30:23.135Z,39.65
2019-05-17T23:33:11.627Z,37.35
2019-05-17T23:36:00.642Z,36.93
2019-05-17T23:38:48.974Z,37.35
2019-05-17T23:41:37.247Z,37.73
2019-05-17T23:44:25.511Z,38.23
2019-05-17T23:47:14.026Z,37.15
2019-05-17T23:50:02.541Z,37.60
2019-05-17T23:52:50.764Z,37.78
2019-05-17T23:55:38.971Z,37.53
2019-05-17T23:58:27.562Z,37.55
